createdAt,value
2022-09-12T06:02:53.644Z,11.09
2022-09-12T06:05:21.418Z,11.41
2022-09-12T06:07:48.905Z,11.71
2022-09-12T06:10:17.969Z,12.01
2022-09-12T06:12:45.985Z,12.27
2022-09-12T06:15:14.483Z,12.49
2022-09-12T06:17:42.084Z,12.70
2022-09-12T06:20:09.876Z,12.91
2022-09-12T06:22:37.623Z,13.12
2022-09-12T06:25:05.598Z,13.28
2022-09-12T06:27:33.032Z,13.40
2022-09-12T06:30:00.918Z,13.56
2022-09-12T06:32:31.511Z,13.76
2022-09-12T06:34:59.094Z,13.89
2022-09-12T06:37:26.622Z,14.00
2022-09-12T06:39:56.022Z,14.20
2022-09-12T06:42:23.858Z,14.37
2022-09-12T06:44:52.336Z,14.53
2022-09-12T06:47:21.204Z,14.67
2022-09-12T06:49:49.211Z,14.99
2022-09-12T06:52:17.421Z,15.40
2022-09-12T06:54:45.113Z,15.96
2022-09-12T06:57:13.066Z,16.59
2022-09-12T06:59:40.623Z,17.36
2022-09-12T07:02:09.926Z,18.13
2022-09-12T07:04:37.394Z,19.03
2022-09-12T07:07:05.708Z,19.38
2022-09-12T07:09:33.451Z,19.64
2022-09-12T07:12:04.368Z,19.58
2022-09-12T07:14:32.142Z,19.55
2022-09-12T07:16:59.662Z,18.99
2022-09-12T07:19:27.231Z,18.51
2022-09-12T07:21:58.532Z,18.73
2022-09-12T07:24:26.397Z,19.23
2022-09-12T07:26:53.871Z,19.69
2022-09-12T07:29:37.855Z,19.85
2022-09-12T07:32:06.580Z,19.67
2022-09-12T07:34:34.497Z,19.34
2022-09-12T07:37:02.013Z,19.29
2022-09-12T07:39:29.756Z,19.58
2022-09-12T07:41:57.765Z,19.83
2022-09-12T07:44:25.428Z,20.09
2022-09-12T07:46:52.869Z,20.39
2022-09-12T07:49:20.322Z,20.47
2022-09-12T07:51:47.826Z,20.65
2022-09-12T07:54:15.933Z,20.72
2022-09-12T07:56:43.564Z,20.82
2022-09-12T07:59:11.316Z,20.84
2022-09-12T08:01:39.957Z,20.90
2022-09-12T08:04:07.705Z,20.72
2022-09-12T08:06:36.984Z,20.73
2022-09-12T08:09:05.732Z,20.70
2022-09-12T08:11:33.492Z,20.65
2022-09-12T08:14:03.037Z,20.57
2022-09-12T08:16:31.967Z,20.49
2022-09-12T08:19:03.667Z,20.51
2022-09-12T08:21:33.225Z,20.28
2022-09-12T08:24:03.893Z,19.89
2022-09-12T08:26:33.484Z,19.40
2022-09-12T08:29:01.878Z,18.99
2022-09-12T08:31:29.321Z,18.40
2022-09-12T08:33:58.090Z,18.31
2022-09-12T08:36:27.768Z,18.15
2022-09-12T08:39:00.735Z,17.95
2022-09-12T08:41:35.189Z,17.85
2022-09-12T08:44:14.398Z,17.71
2022-09-12T08:47:08.922Z,17.58
2022-09-12T08:49:49.004Z,17.45
2022-09-12T08:52:27.741Z,17.29
2022-09-12T08:54:56.717Z,17.19
2022-09-12T08:57:24.865Z,17.11
2022-09-12T08:59:54.504Z,16.98
2022-09-12T09:02:24.892Z,16.83
2022-09-12T09:05:07.193Z,16.74
2022-09-12T09:07:40.963Z,16.60
2022-09-12T09:10:24.336Z,16.53
2022-09-12T09:12:59.101Z,16.48
2022-09-12T09:15:34.482Z,16.45
2022-09-12T09:18:09.997Z,16.36
2022-09-12T09:20:41.292Z,16.30
2022-09-12T09:23:33.466Z,16.28
2022-09-12T09:26:10.998Z,16.22
2022-09-12T09:28:54.218Z,16.15
2022-09-12T09:31:24.463Z,16.12
2022-09-12T09:33:55.534Z,16.09
2022-09-12T09:37:13.534Z,16.09
2022-09-12T09:39:50.210Z,16.08
2022-09-12T09:42:23.739Z,16.11
2022-09-12T09:44:54.401Z,16.11
2022-09-12T09:47:22.116Z,16.11
2022-09-12T09:49:49.872Z,16.10
2022-09-12T09:52:24.905Z,16.09
2022-09-12T09:55:01.072Z,16.06
2022-09-12T09:57:34.827Z,16.04
2022-09-12T10:00:41.758Z,16.02
2022-09-12T10:03:13.207Z,16.02
2022-09-12T10:05:49.054Z,16.02
2022-09-12T10:08:27.524Z,16.03
2022-09-12T10:10:56.225Z,16.02
2022-09-12T10:13:53.383Z,16.00
2022-09-12T10:16:23.699Z,15.96
2022-09-12T10:18:52.653Z,15.97
2022-09-12T10:21:27.834Z,16.01
2022-09-12T10:24:06.490Z,15.97
2022-09-12T10:26:38.340Z,15.95
2022-09-12T10:29:18.854Z,15.96
2022-09-12T10:31:55.665Z,15.87
2022-09-12T10:34:44.746Z,15.96
2022-09-12T10:37:27.129Z,15.90
2022-09-12T10:39:57.411Z,15.95
2022-09-12T10:42:46.671Z,15.97
2022-09-12T10:45:32.455Z,15.95
2022-09-12T10:48:06.756Z,15.96
2022-09-12T10:50:43.142Z,16.00
2022-09-12T10:53:23.998Z,15.95
2022-09-12T10:56:06.902Z,15.87
2022-09-12T10:58:40.545Z,15.92
2022-09-12T11:01:42.329Z,15.90
2022-09-12T11:04:12.907Z,15.92
2022-09-12T11:06:45.013Z,15.94
2022-09-12T11:09:39.605Z,15.95
2022-09-12T11:12:22.814Z,15.98
2022-09-12T11:15:34.794Z,15.96
2022-09-12T11:18:30.392Z,15.96
2022-09-12T11:21:16.259Z,15.97
2022-09-12T11:24:04.516Z,15.97
2022-09-12T11:26:42.426Z,15.93
2022-09-12T11:29:31.760Z,15.88
2022-09-12T11:32:14.262Z,15.85
2022-09-12T11:35:03.131Z,15.83
2022-09-12T11:38:03.019Z,15.83
2022-09-12T11:40:45.543Z,15.83
2022-09-12T11:43:29.324Z,15.82
2022-09-12T11:46:05.225Z,15.81
2022-09-12T11:48:46.270Z,15.81
2022-09-12T11:51:19.918Z,15.76
2022-09-12T11:54:19.629Z,15.76
2022-09-12T11:56:50.842Z,15.72
2022-09-12T11:59:30.953Z,15.68
2022-09-12T12:02:00.362Z,15.70
2022-09-12T12:04:38.074Z,15.72
2022-09-12T12:07:08.128Z,15.70
2022-09-12T12:09:37.232Z,15.68
2022-09-12T12:12:09.415Z,15.66
2022-09-12T12:14:44.197Z,15.65
2022-09-12T12:17:24.245Z,15.71
2022-09-12T12:20:05.769Z,15.67
2022-09-12T12:22:36.090Z,15.61
2022-09-12T12:25:12.541Z,15.61
2022-09-12T12:28:01.818Z,15.62
2022-09-12T12:30:29.630Z,15.63
2022-09-12T12:33:07.397Z,15.62
2022-09-12T12:35:43.829Z,15.62
2022-09-12T12:38:33.743Z,15.57
2022-09-12T12:41:19.437Z,15.55
2022-09-12T12:43:50.871Z,15.55
2022-09-12T12:46:24.040Z,15.51
2022-09-12T12:48:54.400Z,15.48
2022-09-12T12:51:50.000Z,15.46
2022-09-12T12:54:27.182Z,15.39
2022-09-12T12:57:20.393Z,15.37
2022-09-12T12:59:52.488Z,15.39
2022-09-12T13:02:31.862Z,15.37
2022-09-12T13:05:02.612Z,15.37
2022-09-12T13:07:35.064Z,15.35
2022-09-12T13:10:04.551Z,15.34
2022-09-12T13:12:38.071Z,15.32
2022-09-12T13:15:46.563Z,15.29
2022-09-12T13:18:20.081Z,15.29
2022-09-12T13:20:55.620Z,15.26
2022-09-12T13:23:26.119Z,15.25
2022-09-12T13:25:56.074Z,15.25
2022-09-12T13:28:26.445Z,15.25
2022-09-12T13:31:18.352Z,15.25
2022-09-12T13:33:56.003Z,15.23
2022-09-12T13:36:51.588Z,15.18
2022-09-12T13:39:29.191Z,15.19
2022-09-12T13:42:17.922Z,15.19
2022-09-12T13:44:55.673Z,15.17
2022-09-12T13:47:36.923Z,15.16
2022-09-12T13:50:07.927Z,15.16
2022-09-12T13:52:38.280Z,15.17
2022-09-12T13:55:18.588Z,15.13
2022-09-12T13:57:46.101Z,15.10
2022-09-12T14:00:19.533Z,15.12
2022-09-12T14:02:48.500Z,15.13
2022-09-12T14:05:22.763Z,15.16
2022-09-12T14:07:58.512Z,15.13
2022-09-12T14:10:33.219Z,15.11
2022-09-12T14:13:03.404Z,15.12
2022-09-12T14:15:36.017Z,15.12
2022-09-12T14:18:06.808Z,15.09
2022-09-12T14:20:39.537Z,15.08
2022-09-12T14:23:27.519Z,15.06
2022-09-12T14:26:02.555Z,15.08
2022-09-12T14:28:31.309Z,15.07
2022-09-12T14:31:02.119Z,15.06
2022-09-12T14:33:45.901Z,15.01
2022-09-12T14:36:35.970Z,14.90
2022-09-12T14:39:18.512Z,14.97
2022-09-12T14:41:49.237Z,14.97
2022-09-12T14:44:21.066Z,14.99
2022-09-12T14:46:49.266Z,15.01
2022-09-12T14:49:46.079Z,14.98
2022-09-12T14:52:25.644Z,14.99
2022-09-12T14:54:57.786Z,14.99
2022-09-12T14:57:36.484Z,15.01
2022-09-12T15:00:12.707Z,14.94
2022-09-12T15:02:42.212Z,14.80
2022-09-12T15:05:10.772Z,14.81
2022-09-12T15:07:43.958Z,14.79
2022-09-12T15:10:22.953Z,14.85
2022-09-12T15:12:50.496Z,14.84
2022-09-12T15:15:20.815Z,14.78
2022-09-12T15:17:48.838Z,14.80
2022-09-12T15:20:16.786Z,14.86
2022-09-12T15:22:44.360Z,14.86
2022-09-12T15:25:13.353Z,14.86
2022-09-12T15:27:42.436Z,14.87
2022-09-12T15:30:12.201Z,14.86
2022-09-12T15:32:42.564Z,14.81
2022-09-12T15:35:23.142Z,14.82
2022-09-12T15:37:50.868Z,14.77
2022-09-12T15:40:19.139Z,14.81
2022-09-12T15:42:46.766Z,14.82
2022-09-12T15:45:25.940Z,14.81
2022-09-12T15:47:54.571Z,14.78
2022-09-12T15:50:22.498Z,14.70
2022-09-12T15:52:50.362Z,14.64
2022-09-12T15:55:28.332Z,14.65
2022-09-12T15:57:56.500Z,14.71
2022-09-12T16:00:24.802Z,14.70
2022-09-12T16:02:53.822Z,14.64
2022-09-12T16:05:25.279Z,14.60
2022-09-12T16:07:54.938Z,14.64
2022-09-12T16:10:29.696Z,14.57
2022-09-12T16:12:57.951Z,14.48
2022-09-12T16:15:26.178Z,14.36
2022-09-12T16:17:54.512Z,14.43
2022-09-12T16:20:22.790Z,14.37
2022-09-12T16:22:50.600Z,14.37
2022-09-12T16:25:18.587Z,14.22
2022-09-12T16:27:46.506Z,14.08
2022-09-12T16:30:14.537Z,14.08
2022-09-12T16:32:42.196Z,14.08
2022-09-12T16:35:09.998Z,14.00
2022-09-12T16:37:38.113Z,14.03
2022-09-12T16:40:07.329Z,13.95
2022-09-12T16:42:35.840Z,13.89
2022-09-12T16:45:03.830Z,13.85
2022-09-12T16:47:33.016Z,13.75
2022-09-12T16:50:00.532Z,13.60
2022-09-12T16:52:28.818Z,13.65
2022-09-12T16:54:56.452Z,13.62
2022-09-12T16:57:23.850Z,13.45
2022-09-12T16:59:52.118Z,13.34
2022-09-12T17:02:19.734Z,13.33
2022-09-12T17:04:47.548Z,13.39
2022-09-12T17:07:15.402Z,13.26
2022-09-12T17:09:47.433Z,13.30
2022-09-12T17:12:15.654Z,13.20
2022-09-12T17:14:43.371Z,12.98
2022-09-12T17:17:11.025Z,12.96
2022-09-12T17:19:38.876Z,13.01
2022-09-12T17:22:06.444Z,12.94
2022-09-12T17:24:34.166Z,12.99
2022-09-12T17:27:02.089Z,13.06
2022-09-12T17:29:29.834Z,13.00
2022-09-12T17:31:57.582Z,12.94
2022-09-12T17:34:25.308Z,12.86
2022-09-12T17:36:52.910Z,12.86
2022-09-12T17:39:20.685Z,12.84
2022-09-12T17:41:51.058Z,12.85
2022-09-12T17:44:20.236Z,12.77
2022-09-12T17:46:47.886Z,12.81
2022-09-12T17:49:18.740Z,12.81
2022-09-12T17:51:46.425Z,12.82
2022-09-12T17:54:16.338Z,12.66
2022-09-12T17:56:49.758Z,12.59
2022-09-12T17:59:19.596Z,12.57
2022-09-12T18:02:05.968Z,12.58
2022-09-12T18:04:33.712Z,12.59
2022-09-12T18:07:01.757Z,12.57
2022-09-12T18:09:30.777Z,12.56
2022-09-12T18:11:59.265Z,12.48
2022-09-12T18:14:28.324Z,12.46
2022-09-12T18:16:57.647Z,12.36
2022-09-12T18:19:27.314Z,12.40
2022-09-12T18:21:56.147Z,12.34
2022-09-12T18:24:24.663Z,12.34
2022-09-12T18:26:52.745Z,12.43
2022-09-12T18:29:21.518Z,12.40
2022-09-12T18:31:50.617Z,12.45
2022-09-12T18:34:18.508Z,12.30
2022-09-12T18:36:48.562Z,12.35
2022-09-12T18:39:17.970Z,12.30
2022-09-12T18:41:46.511Z,12.22
2022-09-12T18:44:14.755Z,12.22
2022-09-12T18:46:43.148Z,12.27
2022-09-12T18:49:11.152Z,12.22
2022-09-12T18:51:40.225Z,12.26
2022-09-12T18:54:12.784Z,12.18
2022-09-12T18:56:43.605Z,12.13
2022-09-12T18:59:15.560Z,12.03
2022-09-12T19:01:43.834Z,12.08
2022-09-12T19:04:13.660Z,11.99
2022-09-12T19:06:44.054Z,12.00
2022-09-12T19:09:14.756Z,12.03
2022-09-12T19:11:50.336Z,11.82
2022-09-12T19:14:22.614Z,11.87
2022-09-12T19:16:52.080Z,11.87
2022-09-12T19:19:21.288Z,11.87
2022-09-12T19:21:49.170Z,11.94
2022-09-12T19:24:17.517Z,11.87
2022-09-12T19:26:45.878Z,11.91
2022-09-12T19:29:14.799Z,11.84
2022-09-12T19:31:43.798Z,11.89
2022-09-12T19:34:13.388Z,11.84
2022-09-12T19:36:45.513Z,11.86
2022-09-12T19:39:17.407Z,11.78
2022-09-12T19:41:45.936Z,11.66
2022-09-12T19:44:14.587Z,11.75
2022-09-12T19:46:42.856Z,11.82
2022-09-12T19:49:12.956Z,11.64
2022-09-12T19:51:40.926Z,11.65
2022-09-12T19:54:08.454Z,11.55
2022-09-12T19:56:36.071Z,11.59
2022-09-12T19:59:05.505Z,11.54
2022-09-12T20:01:33.312Z,11.42
2022-09-12T20:04:01.256Z,11.46
2022-09-12T20:06:29.004Z,11.44
2022-09-12T20:08:56.548Z,11.48
2022-09-12T20:11:25.838Z,11.49
2022-09-12T20:13:53.552Z,11.41
2022-09-12T20:16:29.076Z,11.45
2022-09-12T20:19:00.607Z,11.36
2022-09-12T20:21:31.937Z,11.36
2022-09-12T20:24:15.867Z,11.27
2022-09-12T20:26:43.371Z,11.21
2022-09-12T20:29:11.499Z,11.11
2022-09-12T20:31:41.624Z,11.22
2022-09-12T20:34:16.002Z,11.08
2022-09-12T20:36:43.982Z,11.10
2022-09-12T20:39:14.628Z,11.08
2022-09-12T20:41:42.468Z,11.11
2022-09-12T20:44:10.326Z,11.06
2022-09-12T20:46:37.863Z,11.13
2022-09-12T20:49:05.762Z,11.04
2022-09-12T20:51:33.245Z,10.94
2022-09-12T20:54:03.287Z,10.98
2022-09-12T20:56:32.929Z,11.10
2022-09-12T20:59:01.104Z,10.98
2022-09-12T21:01:31.399Z,10.96
2022-09-12T21:04:01.810Z,10.89
2022-09-12T21:06:29.342Z,10.91
2022-09-12T21:09:00.695Z,10.76
2022-09-12T21:11:29.135Z,10.88
2022-09-12T21:13:56.815Z,10.82
2022-09-12T21:16:24.333Z,10.87
2022-09-12T21:18:57.360Z,10.88
2022-09-12T21:21:25.805Z,10.93
2022-09-12T21:23:57.932Z,10.88
2022-09-12T21:26:25.883Z,10.81
2022-09-12T21:28:53.838Z,10.81
2022-09-12T21:31:21.481Z,10.79
2022-09-12T21:33:49.590Z,10.76
2022-09-12T21:36:17.332Z,10.71
2022-09-12T21:38:45.110Z,10.69
2022-09-12T21:41:15.565Z,10.74
2022-09-12T21:43:44.048Z,10.71
2022-09-12T21:46:12.179Z,10.63
2022-09-12T21:48:39.742Z,10.64
2022-09-12T21:51:07.252Z,10.60
2022-09-12T21:53:34.938Z,10.53
2022-09-12T21:56:05.358Z,10.45
2022-09-12T21:58:33.375Z,10.40
2022-09-12T22:01:01.593Z,10.43
2022-09-12T22:03:29.922Z,10.45
2022-09-12T22:06:02.979Z,10.42
2022-09-12T22:08:32.531Z,10.38
2022-09-12T22:11:02.179Z,10.35
2022-09-12T22:13:33.832Z,10.32
2022-09-12T22:16:03.164Z,10.32
2022-09-12T22:18:35.732Z,10.24
2022-09-12T22:21:04.747Z,10.19
2022-09-12T22:23:50.399Z,10.30
2022-09-12T22:26:18.074Z,10.30
2022-09-12T22:28:47.287Z,10.30
2022-09-12T22:31:15.752Z,10.28
2022-09-12T22:33:43.624Z,10.29
2022-09-12T22:36:11.626Z,10.30
2022-09-12T22:38:39.374Z,10.37
2022-09-12T22:41:09.321Z,10.29
2022-09-12T22:43:37.524Z,10.35
2022-09-12T22:46:09.516Z,10.49
2022-09-12T22:48:38.189Z,10.36
2022-09-12T22:51:06.319Z,10.40
2022-09-12T22:53:34.960Z,10.50
2022-09-12T22:56:03.986Z,10.51
2022-09-12T22:58:31.890Z,10.45
2022-09-12T23:00:59.580Z,10.46
2022-09-12T23:03:27.177Z,10.45
2022-09-12T23:05:54.676Z,10.40
2022-09-12T23:08:22.177Z,10.50
2022-09-12T23:10:49.861Z,10.46
2022-09-12T23:13:17.863Z,10.49
2022-09-12T23:15:45.565Z,10.46
2022-09-12T23:18:13.288Z,10.38
2022-09-12T23:20:40.978Z,10.49
2022-09-12T23:23:08.572Z,10.48
2022-09-12T23:25:36.193Z,10.50
2022-09-12T23:28:04.336Z,10.56
2022-09-12T23:30:32.110Z,10.59
2022-09-12T23:33:01.146Z,10.63
2022-09-12T23:35:28.636Z,10.64
2022-09-12T23:37:56.056Z,10.54
2022-09-12T23:40:23.660Z,10.66
2022-09-12T23:42:51.419Z,10.60
2022-09-12T23:45:18.876Z,10.60
2022-09-12T23:47:46.310Z,10.62
2022-09-12T23:50:13.858Z,10.66
2022-09-12T23:52:41.330Z,10.62
2022-09-12T23:55:09.280Z,10.64
2022-09-12T23:57:37.045Z,10.70
